sensor_id;sensor_type;location;lat;lon;timestamp;P1;durP1;ratioP1;P2;durP2;ratioP2
8254;SDS011;4167;48.162;11.542;2023-11-21T00:00:40;492.23;;;463.80;;
8254;SDS011;4167;48.162;11.542;2023-11-21T00:03:08;475.52;;;446.33;;
8254;SDS011;4167;48.162;11.542;2023-11-21T00:05:36;485.88;;;455.80;;
8254;SDS011;4167;48.162;11.542;2023-11-21T00:08:03;484.98;;;455.23;;
8254;SDS011;4167;48.162;11.542;2023-11-21T00:10:30;484.95;;;455.55;;
8254;SDS011;4167;48.162;11.542;2023-11-21T00:12:56;460.83;;;432.33;;
8254;SDS011;4167;48.162;11.542;2023-11-21T00:15:23;476.58;;;447.55;;
8254;SDS011;4167;48.162;11.542;2023-11-21T00:17:49;469.90;;;440.30;;
8254;SDS011;4167;48.162;11.542;2023-11-21T00:20:17;486.40;;;455.90;;
8254;SDS011;4167;48.162;11.542;2023-11-21T00:22:44;470.55;;;441.60;;
8254;SDS011;4167;48.162;11.542;2023-11-21T00:25:10;480.35;;;450.83;;
8254;SDS011;4167;48.162;11.542;2023-11-21T00:27:37;467.48;;;439.42;;
8254;SDS011;4167;48.162;11.542;2023-11-21T00:30:04;462.23;;;435.10;;
8254;SDS011;4167;48.162;11.542;2023-11-21T00:32:33;468.35;;;438.77;;
8254;SDS011;4167;48.162;11.542;2023-11-21T00:35:01;468.08;;;439.20;;
8254;SDS011;4167;48.162;11.542;2023-11-21T00:37:29;464.92;;;439.30;;
8254;SDS011;4167;48.162;11.542;2023-11-21T00:39:57;482.85;;;454.50;;
8254;SDS011;4167;48.162;11.542;2023-11-21T00:42:23;465.88;;;436.98;;
8254;SDS011;4167;48.162;11.542;2023-11-21T00:44:50;463.05;;;433.38;;
8254;SDS011;4167;48.162;11.542;2023-11-21T00:47:17;466.38;;;438.42;;
8254;SDS011;4167;48.162;11.542;2023-11-21T00:49:43;467.95;;;438.85;;
8254;SDS011;4167;48.162;11.542;2023-11-21T00:52:10;473.65;;;445.15;;
8254;SDS011;4167;48.162;11.542;2023-11-21T00:54:37;472.83;;;443.73;;
8254;SDS011;4167;48.162;11.542;2023-11-21T00:57:04;483.30;;;454.35;;
8254;SDS011;4167;48.162;11.542;2023-11-21T00:59:31;475.88;;;445.80;;
8254;SDS011;4167;48.162;11.542;2023-11-21T01:01:57;478.75;;;450.35;;
8254;SDS011;4167;48.162;11.542;2023-11-21T01:04:25;470.40;;;442.40;;
8254;SDS011;4167;48.162;11.542;2023-11-21T01:06:51;465.63;;;437.38;;
8254;SDS011;4167;48.162;11.542;2023-11-21T01:09:18;465.08;;;435.77;;
8254;SDS011;4167;48.162;11.542;2023-11-21T01:11:46;476.38;;;447.55;;
8254;SDS011;4167;48.162;11.542;2023-11-21T01:14:12;468.88;;;437.23;;
8254;SDS011;4167;48.162;11.542;2023-11-21T01:16:39;452.30;;;423.95;;
8254;SDS011;4167;48.162;11.542;2023-11-21T01:19:05;480.70;;;449.30;;
8254;SDS011;4167;48.162;11.542;2023-11-21T01:21:32;455.83;;;428.45;;
8254;SDS011;4167;48.162;11.542;2023-11-21T01:23:58;473.35;;;445.15;;
8254;SDS011;4167;48.162;11.542;2023-11-21T01:26:25;473.45;;;445.75;;
8254;SDS011;4167;48.162;11.542;2023-11-21T01:28:53;468.38;;;440.90;;
8254;SDS011;4167;48.162;11.542;2023-11-21T01:31:19;490.42;;;461.63;;
8254;SDS011;4167;48.162;11.542;2023-11-21T01:33:46;542.05;;;510.65;;
8254;SDS011;4167;48.162;11.542;2023-11-21T01:36:12;702.35;;;665.72;;
